Shinsei Maru — JD2188 — position and weather

sailwx.info

Track history (hours):
 
Tides and Currents Weather Stations Pressure Air Temp Water Temp Dewpoint Dewpoint Depression Visibility Wind Speed Wind Dir Waves Ship Positions

Shinsei Maru

Last reported at 2016-May-23 12:33 UTC. Time now 2016-May-25 16:55 UTC.
Position N 33°33' E 134°37'.

Length 104 m; draft 6.5 m.

Type: Tanker. MMSI: 431301775.

Date/timePositionNaut miles runAvg speedWind from/ knotsBaromVisibWave heightAir tempDewpointWater temp
2016-May-23 12:33N 33°33' E 134°37'1313.4
2016-May-23 11:33N 33°43' E 134°48'1312.2
2016-May-23 10:30N 33°54' E 134°55'1112.0
2016-May-23 09:33N 34°04' E 135°02'5 0.7
2016-May-23 01:30N 34°08' E 135°07'1 0.9
2016-May-23 00:33N 34°08' E 135°07'0 0.1
2016-May-22 23:33N 34°08' E 135°07'0 0.0
2016-May-22 22:33N 34°08' E 135°07'0 0.0
2016-May-22 21:27N 34°08' E 135°07'4 4.1
2016-May-22 20:33N 34°07' E 135°03'3913.0
2016-May-22 17:33N 33°34' E 134°38'  
2016-May-16 15:03N 34°03' E 135°01'611.4
2016-May-16 14:33N 34°08' E 135°05'2 0.3
2016-May-16 09:10N 34°07' E 135°07'1 1.2
2016-May-16 08:33N 34°08' E 135°07'5 4.9
2016-May-16 07:32N 34°13' E 135°09'0 0.0
2016-May-16 06:32N 34°13' E 135°09'0 0.0
2016-May-16 05:32N 34°13' E 135°09'0 0.0
2016-May-16 04:32N 34°13' E 135°09'8 8.5
2016-May-16 03:33N 34°06' E 135°02'  
Track history (hours):
 
Tides and Currents Weather Stations Pressure Air Temp Water Temp Dewpoint Dewpoint Depression Visibility Wind Speed Wind Dir Waves Ship Positions

Shinsei Maru

Last reported at 2016-May-23 12:33 UTC. Time now 2016-May-25 16:55 UTC.
Position N 33°33' E 134°37'.

Length 104 m; draft 6.5 m.

Type: Tanker. MMSI: 431301775.

Date/timePositionNaut miles runAvg speedWind from/ knotsBaromVisibWave heightAir tempDewpointWater temp
2016-May-23 12:33N 33°33' E 134°37'1313.4
2016-May-23 11:33N 33°43' E 134°48'1312.2
2016-May-23 10:30N 33°54' E 134°55'1112.0
2016-May-23 09:33N 34°04' E 135°02'5 0.7
2016-May-23 01:30N 34°08' E 135°07'1 0.9
2016-May-23 00:33N 34°08' E 135°07'0 0.1
2016-May-22 23:33N 34°08' E 135°07'0 0.0
2016-May-22 22:33N 34°08' E 135°07'0 0.0
2016-May-22 21:27N 34°08' E 135°07'4 4.1
2016-May-22 20:33N 34°07' E 135°03'3913.0
2016-May-22 17:33N 33°34' E 134°38'  
2016-May-16 15:03N 34°03' E 135°01'611.4
2016-May-16 14:33N 34°08' E 135°05'2 0.3
2016-May-16 09:10N 34°07' E 135°07'1 1.2
2016-May-16 08:33N 34°08' E 135°07'5 4.9
2016-May-16 07:32N 34°13' E 135°09'0 0.0
2016-May-16 06:32N 34°13' E 135°09'0 0.0
2016-May-16 05:32N 34°13' E 135°09'0 0.0
2016-May-16 04:32N 34°13' E 135°09'8 8.5
2016-May-16 03:33N 34°06' E 135°02'  

Dump ship's entire track history